Авиационная погода в Днепропетровске

Регион: 
Погода METAR: 
UKDD 222100Z 00000MPS CAVOK M08/M09 Q1014 NOSIG
Время наблюдения
2022-01-22T21:00:00Z
Температура C
-8.0
Точка росы
-9.0
Направление ветра
0
Скорость ветра (узлы)
0
Метео видимость
6.21
Облачность
CAVOK
Нижняя граница облачности (футы)
Явления погоды
Условия полета
VFR
Аэропорт подробнее: